Urbana, Ohio
Current Conditions -  °F | °C
As of 4:30 AM on Sunday 23 Nov 2014 (Local Time) from KEDJ Reporting Station
Overcast Overcast  
Wind Chill: 38°   Ceiling: 4300
Heat Index: 43°   Visibility: 10mi
Dew Point: 41°   Wind: 8mph
Humidity: 93%   Direction: 150°SSE
Pressure: 30"   Gusts: NA
Location:  40.11°N, 83.75°W
Report Text: KEDJ 230930Z AUTO 15007KT 10SM OVC043 06/05 A3000 RMK AO1
Loading
Personal Weather Stations






























Interactive Weather Map New forecast layout! Learn more

10-Day Weather Forecast

Advertisements
Track Severe Weather on mobile